Robert E. Mcallister — WDC8669 — position and weather

sailwx.info

Track history (hours):
 
Tides and Currents Weather Stations Pressure Air Temp Water Temp Dewpoint Dewpoint Depression Visibility Wind Speed Wind Dir Waves Ship Positions

Robert E. Mcallister

Owner: McAllister Towing & Transportation, Staten Island, NY. More information available from US FCC via Universal Licensing System and Coast Guard Vessel Documentation Center.

Last reported at 2015-Aug-29 16:33 UTC. Time now 2015-Aug-29 16:53 UTC.
Position N 40°40' W 074°09'.

Length 34 m; draft 4.3 m.

Type: Tug. MMSI: 367091120.

Date/timePositionNaut miles runAvg speedWind from/ knotsBaromVisibWave heightAir tempDewpointWater temp
2015-Aug-29 16:33N 40°40' W 074°09'4 3.6
2015-Aug-29 15:33N 40°39' W 074°04'4 4.4
2015-Aug-29 14:33N 40°38' W 074°10'0 0.0
2015-Aug-29 13:33N 40°38' W 074°10'0 0.0
2015-Aug-29 12:33N 40°38' W 074°10'0 0.0
2015-Aug-29 11:33N 40°38' W 074°10'0 0.0
2015-Aug-29 10:33N 40°38' W 074°10'0 0.0
2015-Aug-29 09:33N 40°38' W 074°10'0 0.0
2015-Aug-29 08:33N 40°38' W 074°10'0 0.0
2015-Aug-29 07:33N 40°38' W 074°10'0 0.0
2015-Aug-29 06:33N 40°38' W 074°10'0 0.0
2015-Aug-29 05:33N 40°38' W 074°10'0 0.0
2015-Aug-29 04:33N 40°38' W 074°10'0 0.0
2015-Aug-29 03:33N 40°38' W 074°10'0 0.0
2015-Aug-29 02:33N 40°38' W 074°10'0 0.0
2015-Aug-29 01:33N 40°38' W 074°10'2 1.8
2015-Aug-29 00:33N 40°38' W 074°12'1 0.9
2015-Aug-28 23:28N 40°39' W 074°11'5 5.8
2015-Aug-28 22:33N 40°39' W 074°04'1 1.3
2015-Aug-28 21:33N 40°38' W 074°04'2 1.8
2015-Aug-28 20:33N 40°40' W 074°04'0 0.3
2015-Aug-28 19:33N 40°40' W 074°04'0 0.0
2015-Aug-28 18:33N 40°40' W 074°04'0 0.0
2015-Aug-28 17:33N 40°40' W 074°04'0 0.0
2015-Aug-28 16:33N 40°40' W 074°04'0 0.2
2015-Aug-28 15:33N 40°40' W 074°04'0 0.0
2015-Aug-28 14:33N 40°40' W 074°04'0 0.0
2015-Aug-28 13:33N 40°40' W 074°04'0 0.0
2015-Aug-28 12:33N 40°40' W 074°04'0 0.0
2015-Aug-28 11:33N 40°40' W 074°04'1 0.8
2015-Aug-28 10:33N 40°40' W 074°03'0 0.2
2015-Aug-28 09:33N 40°39' W 074°03'1 1.4
2015-Aug-28 08:33N 40°39' W 074°05'4 3.5
2015-Aug-28 07:33N 40°38' W 074°10'0 0.0
2015-Aug-28 06:33N 40°38' W 074°10'0 0.0
2015-Aug-28 05:33N 40°38' W 074°10'0 0.0
2015-Aug-28 04:33N 40°38' W 074°10'0 0.0
2015-Aug-28 03:33N 40°38' W 074°10'2 1.5
2015-Aug-28 02:33N 40°40' W 074°09'1 1.4
2015-Aug-28 01:33N 40°41' W 074°08'3 2.9
2015-Aug-28 00:33N 40°38' W 074°10'0 0.0
2015-Aug-27 23:33N 40°38' W 074°10'0 0.0
2015-Aug-27 22:33N 40°38' W 074°10'1 1.3
2015-Aug-27 21:33N 40°40' W 074°09'0 0.0
2015-Aug-27 20:33N 40°40' W 074°09'0 0.0
2015-Aug-27 19:33N 40°40' W 074°09'0 0.0
2015-Aug-27 18:33N 40°40' W 074°09'0 0.0
2015-Aug-27 17:33N 40°40' W 074°09'0 0.0
2015-Aug-27 16:33N 40°40' W 074°09'0 0.0
2015-Aug-27 15:33N 40°40' W 074°09'1 0.7
2015-Aug-27 14:33N 40°40' W 074°08'2 2.0
2015-Aug-27 13:33N 40°38' W 074°10'0 0.0
2015-Aug-27 12:33N 40°38' W 074°10'0 0.0
2015-Aug-27 11:33N 40°38' W 074°10'3 3.4
2015-Aug-27 10:33N 40°42' W 074°08'4 3.5
2015-Aug-27 09:33N 40°39' W 074°06'3 3.2
2015-Aug-27 08:33N 40°38' W 074°10'0 0.0
2015-Aug-27 07:33N 40°38' W 074°10'0 0.0
2015-Aug-27 06:33N 40°38' W 074°10'0 0.0
2015-Aug-27 05:33N 40°38' W 074°10'0 0.0
2015-Aug-27 04:33N 40°38' W 074°10'0 0.0
2015-Aug-27 03:33N 40°38' W 074°10'3 2.6
2015-Aug-27 02:33N 40°41' W 074°09'0 0.4
2015-Aug-27 01:33N 40°41' W 074°09'3 2.5
2015-Aug-27 00:33N 40°38' W 074°10'0 0.0
2015-Aug-26 23:34N 40°38' W 074°10'1 0.8
2015-Aug-26 22:33N 40°38' W 074°09'3 3.3
2015-Aug-26 21:33N 40°42' W 074°09'3 3.2
2015-Aug-26 20:32N 40°39' W 074°10'0 0.1
2015-Aug-26 17:33N 40°38' W 074°10'2 2.3
2015-Aug-26 16:32N 40°39' W 074°07'0 0.2
2015-Aug-26 15:33N 40°39' W 074°07'3 2.6
2015-Aug-26 14:33N 40°38' W 074°10'0 0.0
2015-Aug-26 13:32N 40°38' W 074°10'0 0.0
2015-Aug-26 12:33N 40°38' W 074°10'0 0.0
2015-Aug-26 11:33N 40°38' W 074°10'0 0.0
2015-Aug-26 10:34N 40°38' W 074°10'0 0.0
2015-Aug-26 09:33N 40°38' W 074°10'0 0.0
2015-Aug-26 08:33N 40°38' W 074°10'0 0.0
2015-Aug-26 07:33N 40°38' W 074°10'0 0.0
2015-Aug-26 06:33N 40°38' W 074°10'0 0.0
2015-Aug-26 05:33N 40°38' W 074°10'2 2.2
2015-Aug-26 04:33N 40°40' W 074°08'0 0.2
2015-Aug-26 03:33N 40°40' W 074°08'2 2.0
2015-Aug-26 02:33N 40°38' W 074°10'0 0.0
2015-Aug-26 01:34N 40°38' W 074°10'0 0.1
2015-Aug-26 00:33N 40°39' W 074°10'2 2.0
2015-Aug-25 23:33N 40°40' W 074°08'0 0.1
2015-Aug-25 22:33N 40°40' W 074°09'0 0.2
2015-Aug-25 21:34N 40°40' W 074°08'2 2.0
2015-Aug-25 20:31N 40°38' W 074°10'0 0.0
2015-Aug-25 19:31N 40°38' W 074°10'0 0.0
2015-Aug-25 18:33N 40°38' W 074°10'0 0.0
2015-Aug-25 17:33N 40°38' W 074°10'3 3.5
2015-Aug-25 16:33N 40°42' W 074°09'1 1.2
2015-Aug-25 15:32N 40°41' W 074°08'4 4.5
2015-Aug-25 14:33N 40°38' W 074°03'5 5.0
2015-Aug-25 13:33N 40°38' W 074°10'0 0.4
2015-Aug-25 12:34N 40°38' W 074°09'2 2.3
2015-Aug-25 11:33N 40°41' W 074°09'0 0.5
2015-Aug-25 10:33N 40°40' W 074°08'2 2.2
2015-Aug-25 09:33N 40°39' W 074°10'0 0.1
2015-Aug-25 08:33N 40°38' W 074°10'0 0.0
2015-Aug-25 07:33N 40°38' W 074°10'0 0.0
2015-Aug-25 06:34N 40°38' W 074°10'0 0.0
2015-Aug-25 05:34N 40°38' W 074°10'0 0.0
2015-Aug-25 04:33N 40°38' W 074°10'0 0.0
2015-Aug-25 03:33N 40°38' W 074°10'0 0.0
2015-Aug-25 02:33N 40°38' W 074°10'0 0.0
2015-Aug-25 01:34N 40°38' W 074°10'0 0.0
2015-Aug-25 00:33N 40°38' W 074°10'0 0.0
2015-Aug-24 23:33N 40°38' W 074°10'1 1.2
2015-Aug-24 22:30N 40°39' W 074°08'2 2.6
2015-Aug-24 21:33N 40°41' W 074°09'3 3.5
2015-Aug-24 20:33N 40°39' W 074°05'1 1.3
2015-Aug-24 19:33N 40°40' W 074°04'0 0.0
2015-Aug-24 18:33N 40°40' W 074°04'6 6.0
2015-Aug-24 17:33N 40°45' W 074°01'0 0.2
2015-Aug-24 16:33N 40°45' W 074°01'5 4.5
2015-Aug-24 15:33N 40°41' W 074°02'2 1.7
2015-Aug-24 14:33N 40°40' W 074°04'3 3.2
2015-Aug-24 13:33N 40°40' W 074°08'0 0.1
2015-Aug-24 12:33N 40°40' W 074°08'0 0.0
2015-Aug-24 11:33N 40°40' W 074°08'0 0.2
2015-Aug-24 10:33N 40°40' W 074°08'2 2.2
2015-Aug-24 09:33N 40°38' W 074°09'0 0.3
2015-Aug-24 08:33N 40°38' W 074°10'0 0.0
2015-Aug-24 07:33N 40°38' W 074°10'0 0.0
2015-Aug-24 06:33N 40°38' W 074°10'0 0.0
2015-Aug-24 05:33N 40°38' W 074°10'0 0.0
2015-Aug-24 04:33N 40°38' W 074°10'0 0.0
2015-Aug-24 03:34N 40°38' W 074°10'0 0.0
2015-Aug-24 02:33N 40°38' W 074°10'2 2.4
2015-Aug-24 01:33N 40°40' W 074°08'2 1.9
2015-Aug-24 00:33N 40°39' W 074°08'1 1.5
2015-Aug-23 23:33N 40°38' W 074°10'0 0.0
2015-Aug-23 22:33N 40°38' W 074°10'2 2.3
2015-Aug-23 21:34N 40°40' W 074°08'3 2.9
2015-Aug-23 20:33N 40°39' W 074°05'2 1.5
2015-Aug-23 19:33N 40°39' W 074°07'2 2.3
2015-Aug-23 18:33N 40°38' W 074°10'0 0.0
2015-Aug-23 17:33N 40°38' W 074°10'1 1.2
2015-Aug-23 16:34N 40°39' W 074°09'1 0.5
2015-Aug-23 15:33N 40°40' W 074°09'4 4.5
2015-Aug-23 14:33N 40°38' W 074°03'5 5.1
2015-Aug-23 13:34N 40°38' W 074°10'0 0.0
2015-Aug-23 12:33N 40°38' W 074°10'0 0.0
2015-Aug-23 11:34N 40°38' W 074°10'0 0.0
2015-Aug-23 10:33N 40°38' W 074°10'0 0.0
2015-Aug-23 09:34N 40°38' W 074°10'4 4.3
2015-Aug-23 08:33N 40°35' W 074°13'4 1.6
2015-Aug-23 06:20N 40°32' W 074°15'5 4.2
2015-Aug-23 05:16N 40°36' W 074°12'3 4.8
2015-Aug-23 04:33N 40°38' W 074°10'0 0.0
2015-Aug-23 03:34N 40°38' W 074°10'0 0.0
2015-Aug-23 02:33N 40°38' W 074°10'0 0.0
2015-Aug-23 01:33N 40°38' W 074°10'0 0.0
2015-Aug-23 00:34N 40°38' W 074°10'0 0.0
2015-Aug-22 23:33N 40°38' W 074°10'0 0.0
2015-Aug-22 22:34N 40°38' W 074°10'0 0.0
2015-Aug-22 21:34N 40°38' W 074°10'0 0.0
2015-Aug-22 20:33N 40°38' W 074°10'0 0.0
2015-Aug-22 19:34N 40°38' W 074°10'0 0.0
2015-Aug-22 18:34N 40°38' W 074°10'0 0.0
2015-Aug-22 17:33N 40°38' W 074°10'0 0.0
2015-Aug-22 16:34N 40°38' W 074°10'0 0.0
2015-Aug-22 15:33N 40°38' W 074°10'0 0.0
2015-Aug-22 14:33N 40°38' W 074°10'0 0.0
2015-Aug-22 13:34N 40°38' W 074°10'0 0.0
2015-Aug-22 12:33N 40°38' W 074°10'0 0.0
2015-Aug-22 11:33N 40°38' W 074°10'0 0.0
2015-Aug-22 10:33N 40°38' W 074°10'0 0.0
2015-Aug-22 09:34N 40°38' W 074°10'0 0.0
2015-Aug-22 08:33N 40°38' W 074°10'0 0.0
2015-Aug-22 07:34N 40°38' W 074°10'0 0.0
2015-Aug-22 06:33N 40°38' W 074°10'0 0.0
2015-Aug-22 05:33N 40°38' W 074°10'0 0.0
2015-Aug-22 04:33N 40°38' W 074°10'0 0.0
2015-Aug-22 03:33N 40°38' W 074°10'0 0.0
2015-Aug-22 02:33N 40°38' W 074°10'0 0.0
2015-Aug-22 01:33N 40°38' W 074°10'0 0.0
2015-Aug-22 00:33N 40°38' W 074°10'0 0.0
2015-Aug-21 23:33N 40°38' W 074°10'0 0.0
2015-Aug-21 22:33N 40°38' W 074°10'1 0.6
2015-Aug-21 21:33N 40°39' W 074°09'2 1.9
2015-Aug-21 20:34N 40°40' W 074°08'0 0.0
2015-Aug-21 19:34N 40°40' W 074°08'0 0.0
2015-Aug-21 18:33N 40°40' W 074°08'0 0.0
2015-Aug-21 17:33N 40°40' W 074°08'0 0.0
2015-Aug-21 16:33N 40°40' W 074°08'0 0.0
2015-Aug-21 15:33N 40°40' W 074°08'0 0.1
2015-Aug-21 14:33N 40°40' W 074°08'2 1.9
2015-Aug-21 13:33N 40°39' W 074°07'2 2.0
2015-Aug-21 12:33N 40°38' W 074°10'0 0.0
2015-Aug-21 11:34N 40°38' W 074°10'0 0.0
2015-Aug-21 10:33N 40°38' W 074°10'0 0.0
2015-Aug-21 09:33N 40°38' W 074°10'3 3.3
2015-Aug-21 08:33N 40°42' W 074°08'3 2.7
2015-Aug-21 07:33N 40°39' W 074°09'2 2.4
2015-Aug-21 06:33N 40°39' W 074°06'2 1.8
2015-Aug-21 05:33N 40°40' W 074°04'1 1.3
2015-Aug-21 04:33N 40°40' W 074°05'2 1.5
2015-Aug-21 03:34N 40°39' W 074°03'5 4.9
2015-Aug-21 02:33N 40°38' W 074°10'0 0.0
2015-Aug-21 01:33N 40°38' W 074°10'0 0.0
2015-Aug-21 00:34N 40°38' W 074°10'0 0.0
2015-Aug-20 23:33N 40°38' W 074°10'2 2.5
2015-Aug-20 22:33N 40°41' W 074°09'0 0.2
2015-Aug-20 21:33N 40°41' W 074°09'2 2.5
2015-Aug-20 20:33N 40°38' W 074°10'0 0.0
2015-Aug-20 19:33N 40°38' W 074°10'0 0.0
2015-Aug-20 18:34N 40°38' W 074°10'0 0.0
2015-Aug-20 17:33N 40°38' W 074°10'0 0.0
2015-Aug-20 16:33N 40°38' W 074°10'1 0.7
2015-Aug-20 15:33N 40°39' W 074°09'1 0.9
2015-Aug-20 14:33N 40°40' W 074°09'1 1.4
2015-Aug-20 13:34N 40°38' W 074°10'4 3.9
2015-Aug-20 12:33N 40°39' W 074°05'6 5.9
2015-Aug-20 11:33N 40°42' W 073°58'0 0.0
2015-Aug-20 10:33N 40°42' W 073°58'0 0.0
2015-Aug-20 09:33N 40°42' W 073°58'5 4.8
2015-Aug-20 08:32N 40°40' W 074°04'0 0.2
2015-Aug-20 07:33N 40°40' W 074°04'5 4.6
2015-Aug-20 06:33N 40°38' W 074°10'0 0.0
2015-Aug-20 05:33N 40°38' W 074°10'0 0.0
2015-Aug-20 04:33N 40°38' W 074°10'2 1.8
2015-Aug-20 03:33N 40°38' W 074°12'2 1.8
2015-Aug-20 02:33N 40°38' W 074°10'0 0.0
2015-Aug-20 01:33N 40°38' W 074°10'0 0.0
2015-Aug-20 00:33N 40°38' W 074°10'0 0.0
2015-Aug-19 23:33N 40°38' W 074°10'0 0.0
2015-Aug-19 22:33N 40°38' W 074°10'2 1.7
2015-Aug-19 21:33N 40°39' W 074°08'3 3.0
2015-Aug-19 20:33N 40°42' W 074°08'3 2.6
2015-Aug-19 19:33N 40°39' W 074°09'1 0.9
2015-Aug-19 18:33N 40°38' W 074°10'1 0.7
2015-Aug-19 17:33N 40°38' W 074°09'  
Track history (hours):
 
Tides and Currents Weather Stations Pressure Air Temp Water Temp Dewpoint Dewpoint Depression Visibility Wind Speed Wind Dir Waves Ship Positions

Robert E. Mcallister

Owner: McAllister Towing & Transportation, Staten Island, NY. More information available from US FCC via Universal Licensing System and Coast Guard Vessel Documentation Center.

Last reported at 2015-Aug-29 16:33 UTC. Time now 2015-Aug-29 16:53 UTC.
Position N 40°40' W 074°09'.

Length 34 m; draft 4.3 m.

Type: Tug. MMSI: 367091120.

Date/timePositionNaut miles runAvg speedWind from/ knotsBaromVisibWave heightAir tempDewpointWater temp
2015-Aug-29 16:33N 40°40' W 074°09'4 3.6
2015-Aug-29 15:33N 40°39' W 074°04'4 4.4
2015-Aug-29 14:33N 40°38' W 074°10'0 0.0
2015-Aug-29 13:33N 40°38' W 074°10'0 0.0
2015-Aug-29 12:33N 40°38' W 074°10'0 0.0
2015-Aug-29 11:33N 40°38' W 074°10'0 0.0
2015-Aug-29 10:33N 40°38' W 074°10'0 0.0
2015-Aug-29 09:33N 40°38' W 074°10'0 0.0
2015-Aug-29 08:33N 40°38' W 074°10'0 0.0
2015-Aug-29 07:33N 40°38' W 074°10'0 0.0
2015-Aug-29 06:33N 40°38' W 074°10'0 0.0
2015-Aug-29 05:33N 40°38' W 074°10'0 0.0
2015-Aug-29 04:33N 40°38' W 074°10'0 0.0
2015-Aug-29 03:33N 40°38' W 074°10'0 0.0
2015-Aug-29 02:33N 40°38' W 074°10'0 0.0
2015-Aug-29 01:33N 40°38' W 074°10'2 1.8
2015-Aug-29 00:33N 40°38' W 074°12'1 0.9
2015-Aug-28 23:28N 40°39' W 074°11'5 5.8
2015-Aug-28 22:33N 40°39' W 074°04'1 1.3
2015-Aug-28 21:33N 40°38' W 074°04'2 1.8
2015-Aug-28 20:33N 40°40' W 074°04'0 0.3
2015-Aug-28 19:33N 40°40' W 074°04'0 0.0
2015-Aug-28 18:33N 40°40' W 074°04'0 0.0
2015-Aug-28 17:33N 40°40' W 074°04'0 0.0
2015-Aug-28 16:33N 40°40' W 074°04'0 0.2
2015-Aug-28 15:33N 40°40' W 074°04'0 0.0
2015-Aug-28 14:33N 40°40' W 074°04'0 0.0
2015-Aug-28 13:33N 40°40' W 074°04'0 0.0
2015-Aug-28 12:33N 40°40' W 074°04'0 0.0
2015-Aug-28 11:33N 40°40' W 074°04'1 0.8
2015-Aug-28 10:33N 40°40' W 074°03'0 0.2
2015-Aug-28 09:33N 40°39' W 074°03'1 1.4
2015-Aug-28 08:33N 40°39' W 074°05'4 3.5
2015-Aug-28 07:33N 40°38' W 074°10'0 0.0
2015-Aug-28 06:33N 40°38' W 074°10'0 0.0
2015-Aug-28 05:33N 40°38' W 074°10'0 0.0
2015-Aug-28 04:33N 40°38' W 074°10'0 0.0
2015-Aug-28 03:33N 40°38' W 074°10'2 1.5
2015-Aug-28 02:33N 40°40' W 074°09'1 1.4
2015-Aug-28 01:33N 40°41' W 074°08'3 2.9
2015-Aug-28 00:33N 40°38' W 074°10'0 0.0
2015-Aug-27 23:33N 40°38' W 074°10'0 0.0
2015-Aug-27 22:33N 40°38' W 074°10'1 1.3
2015-Aug-27 21:33N 40°40' W 074°09'0 0.0
2015-Aug-27 20:33N 40°40' W 074°09'0 0.0
2015-Aug-27 19:33N 40°40' W 074°09'0 0.0
2015-Aug-27 18:33N 40°40' W 074°09'0 0.0
2015-Aug-27 17:33N 40°40' W 074°09'0 0.0
2015-Aug-27 16:33N 40°40' W 074°09'0 0.0
2015-Aug-27 15:33N 40°40' W 074°09'1 0.7
2015-Aug-27 14:33N 40°40' W 074°08'2 2.0
2015-Aug-27 13:33N 40°38' W 074°10'0 0.0
2015-Aug-27 12:33N 40°38' W 074°10'0 0.0
2015-Aug-27 11:33N 40°38' W 074°10'3 3.4
2015-Aug-27 10:33N 40°42' W 074°08'4 3.5
2015-Aug-27 09:33N 40°39' W 074°06'3 3.2
2015-Aug-27 08:33N 40°38' W 074°10'0 0.0
2015-Aug-27 07:33N 40°38' W 074°10'0 0.0
2015-Aug-27 06:33N 40°38' W 074°10'0 0.0
2015-Aug-27 05:33N 40°38' W 074°10'0 0.0
2015-Aug-27 04:33N 40°38' W 074°10'0 0.0
2015-Aug-27 03:33N 40°38' W 074°10'3 2.6
2015-Aug-27 02:33N 40°41' W 074°09'0 0.4
2015-Aug-27 01:33N 40°41' W 074°09'3 2.5
2015-Aug-27 00:33N 40°38' W 074°10'0 0.0
2015-Aug-26 23:34N 40°38' W 074°10'1 0.8
2015-Aug-26 22:33N 40°38' W 074°09'3 3.3
2015-Aug-26 21:33N 40°42' W 074°09'3 3.2
2015-Aug-26 20:32N 40°39' W 074°10'0 0.1
2015-Aug-26 17:33N 40°38' W 074°10'2 2.3
2015-Aug-26 16:32N 40°39' W 074°07'0 0.2
2015-Aug-26 15:33N 40°39' W 074°07'3 2.6
2015-Aug-26 14:33N 40°38' W 074°10'0 0.0
2015-Aug-26 13:32N 40°38' W 074°10'0 0.0
2015-Aug-26 12:33N 40°38' W 074°10'0 0.0
2015-Aug-26 11:33N 40°38' W 074°10'0 0.0
2015-Aug-26 10:34N 40°38' W 074°10'0 0.0
2015-Aug-26 09:33N 40°38' W 074°10'0 0.0
2015-Aug-26 08:33N 40°38' W 074°10'0 0.0
2015-Aug-26 07:33N 40°38' W 074°10'0 0.0
2015-Aug-26 06:33N 40°38' W 074°10'0 0.0
2015-Aug-26 05:33N 40°38' W 074°10'2 2.2
2015-Aug-26 04:33N 40°40' W 074°08'0 0.2
2015-Aug-26 03:33N 40°40' W 074°08'2 2.0
2015-Aug-26 02:33N 40°38' W 074°10'0 0.0
2015-Aug-26 01:34N 40°38' W 074°10'0 0.1
2015-Aug-26 00:33N 40°39' W 074°10'2 2.0
2015-Aug-25 23:33N 40°40' W 074°08'0 0.1
2015-Aug-25 22:33N 40°40' W 074°09'0 0.2
2015-Aug-25 21:34N 40°40' W 074°08'2 2.0
2015-Aug-25 20:31N 40°38' W 074°10'0 0.0
2015-Aug-25 19:31N 40°38' W 074°10'0 0.0
2015-Aug-25 18:33N 40°38' W 074°10'0 0.0
2015-Aug-25 17:33N 40°38' W 074°10'3 3.5
2015-Aug-25 16:33N 40°42' W 074°09'1 1.2
2015-Aug-25 15:32N 40°41' W 074°08'4 4.5
2015-Aug-25 14:33N 40°38' W 074°03'5 5.0
2015-Aug-25 13:33N 40°38' W 074°10'0 0.4
2015-Aug-25 12:34N 40°38' W 074°09'2 2.3
2015-Aug-25 11:33N 40°41' W 074°09'0 0.5
2015-Aug-25 10:33N 40°40' W 074°08'2 2.2
2015-Aug-25 09:33N 40°39' W 074°10'0 0.1
2015-Aug-25 08:33N 40°38' W 074°10'0 0.0
2015-Aug-25 07:33N 40°38' W 074°10'0 0.0
2015-Aug-25 06:34N 40°38' W 074°10'0 0.0
2015-Aug-25 05:34N 40°38' W 074°10'0 0.0
2015-Aug-25 04:33N 40°38' W 074°10'0 0.0
2015-Aug-25 03:33N 40°38' W 074°10'0 0.0
2015-Aug-25 02:33N 40°38' W 074°10'0 0.0
2015-Aug-25 01:34N 40°38' W 074°10'0 0.0
2015-Aug-25 00:33N 40°38' W 074°10'0 0.0
2015-Aug-24 23:33N 40°38' W 074°10'1 1.2
2015-Aug-24 22:30N 40°39' W 074°08'2 2.6
2015-Aug-24 21:33N 40°41' W 074°09'3 3.5
2015-Aug-24 20:33N 40°39' W 074°05'1 1.3
2015-Aug-24 19:33N 40°40' W 074°04'0 0.0
2015-Aug-24 18:33N 40°40' W 074°04'6 6.0
2015-Aug-24 17:33N 40°45' W 074°01'0 0.2
2015-Aug-24 16:33N 40°45' W 074°01'5 4.5
2015-Aug-24 15:33N 40°41' W 074°02'2 1.7
2015-Aug-24 14:33N 40°40' W 074°04'3 3.2
2015-Aug-24 13:33N 40°40' W 074°08'0 0.1
2015-Aug-24 12:33N 40°40' W 074°08'0 0.0
2015-Aug-24 11:33N 40°40' W 074°08'0 0.2
2015-Aug-24 10:33N 40°40' W 074°08'2 2.2
2015-Aug-24 09:33N 40°38' W 074°09'0 0.3
2015-Aug-24 08:33N 40°38' W 074°10'0 0.0
2015-Aug-24 07:33N 40°38' W 074°10'0 0.0
2015-Aug-24 06:33N 40°38' W 074°10'0 0.0
2015-Aug-24 05:33N 40°38' W 074°10'0 0.0
2015-Aug-24 04:33N 40°38' W 074°10'0 0.0
2015-Aug-24 03:34N 40°38' W 074°10'0 0.0
2015-Aug-24 02:33N 40°38' W 074°10'2 2.4
2015-Aug-24 01:33N 40°40' W 074°08'2 1.9
2015-Aug-24 00:33N 40°39' W 074°08'1 1.5
2015-Aug-23 23:33N 40°38' W 074°10'0 0.0
2015-Aug-23 22:33N 40°38' W 074°10'2 2.3
2015-Aug-23 21:34N 40°40' W 074°08'3 2.9
2015-Aug-23 20:33N 40°39' W 074°05'2 1.5
2015-Aug-23 19:33N 40°39' W 074°07'2 2.3
2015-Aug-23 18:33N 40°38' W 074°10'0 0.0
2015-Aug-23 17:33N 40°38' W 074°10'1 1.2
2015-Aug-23 16:34N 40°39' W 074°09'1 0.5
2015-Aug-23 15:33N 40°40' W 074°09'4 4.5
2015-Aug-23 14:33N 40°38' W 074°03'5 5.1
2015-Aug-23 13:34N 40°38' W 074°10'0 0.0
2015-Aug-23 12:33N 40°38' W 074°10'0 0.0
2015-Aug-23 11:34N 40°38' W 074°10'0 0.0
2015-Aug-23 10:33N 40°38' W 074°10'0 0.0
2015-Aug-23 09:34N 40°38' W 074°10'4 4.3
2015-Aug-23 08:33N 40°35' W 074°13'4 1.6
2015-Aug-23 06:20N 40°32' W 074°15'5 4.2
2015-Aug-23 05:16N 40°36' W 074°12'3 4.8
2015-Aug-23 04:33N 40°38' W 074°10'0 0.0
2015-Aug-23 03:34N 40°38' W 074°10'0 0.0
2015-Aug-23 02:33N 40°38' W 074°10'0 0.0
2015-Aug-23 01:33N 40°38' W 074°10'0 0.0
2015-Aug-23 00:34N 40°38' W 074°10'0 0.0
2015-Aug-22 23:33N 40°38' W 074°10'0 0.0
2015-Aug-22 22:34N 40°38' W 074°10'0 0.0
2015-Aug-22 21:34N 40°38' W 074°10'0 0.0
2015-Aug-22 20:33N 40°38' W 074°10'0 0.0
2015-Aug-22 19:34N 40°38' W 074°10'0 0.0
2015-Aug-22 18:34N 40°38' W 074°10'0 0.0
2015-Aug-22 17:33N 40°38' W 074°10'0 0.0
2015-Aug-22 16:34N 40°38' W 074°10'0 0.0
2015-Aug-22 15:33N 40°38' W 074°10'0 0.0
2015-Aug-22 14:33N 40°38' W 074°10'0 0.0
2015-Aug-22 13:34N 40°38' W 074°10'0 0.0
2015-Aug-22 12:33N 40°38' W 074°10'0 0.0
2015-Aug-22 11:33N 40°38' W 074°10'0 0.0
2015-Aug-22 10:33N 40°38' W 074°10'0 0.0
2015-Aug-22 09:34N 40°38' W 074°10'0 0.0
2015-Aug-22 08:33N 40°38' W 074°10'0 0.0
2015-Aug-22 07:34N 40°38' W 074°10'0 0.0
2015-Aug-22 06:33N 40°38' W 074°10'0 0.0
2015-Aug-22 05:33N 40°38' W 074°10'0 0.0
2015-Aug-22 04:33N 40°38' W 074°10'0 0.0
2015-Aug-22 03:33N 40°38' W 074°10'0 0.0
2015-Aug-22 02:33N 40°38' W 074°10'0 0.0
2015-Aug-22 01:33N 40°38' W 074°10'0 0.0
2015-Aug-22 00:33N 40°38' W 074°10'0 0.0
2015-Aug-21 23:33N 40°38' W 074°10'0 0.0
2015-Aug-21 22:33N 40°38' W 074°10'1 0.6
2015-Aug-21 21:33N 40°39' W 074°09'2 1.9
2015-Aug-21 20:34N 40°40' W 074°08'0 0.0
2015-Aug-21 19:34N 40°40' W 074°08'0 0.0
2015-Aug-21 18:33N 40°40' W 074°08'0 0.0
2015-Aug-21 17:33N 40°40' W 074°08'0 0.0
2015-Aug-21 16:33N 40°40' W 074°08'0 0.0
2015-Aug-21 15:33N 40°40' W 074°08'0 0.1
2015-Aug-21 14:33N 40°40' W 074°08'2 1.9
2015-Aug-21 13:33N 40°39' W 074°07'2 2.0
2015-Aug-21 12:33N 40°38' W 074°10'0 0.0
2015-Aug-21 11:34N 40°38' W 074°10'0 0.0
2015-Aug-21 10:33N 40°38' W 074°10'0 0.0
2015-Aug-21 09:33N 40°38' W 074°10'3 3.3
2015-Aug-21 08:33N 40°42' W 074°08'3 2.7
2015-Aug-21 07:33N 40°39' W 074°09'2 2.4
2015-Aug-21 06:33N 40°39' W 074°06'2 1.8
2015-Aug-21 05:33N 40°40' W 074°04'1 1.3
2015-Aug-21 04:33N 40°40' W 074°05'2 1.5
2015-Aug-21 03:34N 40°39' W 074°03'5 4.9
2015-Aug-21 02:33N 40°38' W 074°10'0 0.0
2015-Aug-21 01:33N 40°38' W 074°10'0 0.0
2015-Aug-21 00:34N 40°38' W 074°10'0 0.0
2015-Aug-20 23:33N 40°38' W 074°10'2 2.5
2015-Aug-20 22:33N 40°41' W 074°09'0 0.2
2015-Aug-20 21:33N 40°41' W 074°09'2 2.5
2015-Aug-20 20:33N 40°38' W 074°10'0 0.0
2015-Aug-20 19:33N 40°38' W 074°10'0 0.0
2015-Aug-20 18:34N 40°38' W 074°10'0 0.0
2015-Aug-20 17:33N 40°38' W 074°10'0 0.0
2015-Aug-20 16:33N 40°38' W 074°10'1 0.7
2015-Aug-20 15:33N 40°39' W 074°09'1 0.9
2015-Aug-20 14:33N 40°40' W 074°09'1 1.4
2015-Aug-20 13:34N 40°38' W 074°10'4 3.9
2015-Aug-20 12:33N 40°39' W 074°05'6 5.9
2015-Aug-20 11:33N 40°42' W 073°58'0 0.0
2015-Aug-20 10:33N 40°42' W 073°58'0 0.0
2015-Aug-20 09:33N 40°42' W 073°58'5 4.8
2015-Aug-20 08:32N 40°40' W 074°04'0 0.2
2015-Aug-20 07:33N 40°40' W 074°04'5 4.6
2015-Aug-20 06:33N 40°38' W 074°10'0 0.0
2015-Aug-20 05:33N 40°38' W 074°10'0 0.0
2015-Aug-20 04:33N 40°38' W 074°10'2 1.8
2015-Aug-20 03:33N 40°38' W 074°12'2 1.8
2015-Aug-20 02:33N 40°38' W 074°10'0 0.0
2015-Aug-20 01:33N 40°38' W 074°10'0 0.0
2015-Aug-20 00:33N 40°38' W 074°10'0 0.0
2015-Aug-19 23:33N 40°38' W 074°10'0 0.0
2015-Aug-19 22:33N 40°38' W 074°10'2 1.7
2015-Aug-19 21:33N 40°39' W 074°08'3 3.0
2015-Aug-19 20:33N 40°42' W 074°08'3 2.6
2015-Aug-19 19:33N 40°39' W 074°09'1 0.9
2015-Aug-19 18:33N 40°38' W 074°10'1 0.7
2015-Aug-19 17:33N 40°38' W 074°09'  

Dump ship's entire track history